createdAt,value
2019-03-09T00:00:50.386Z,27.40
2019-03-09T00:01:50.386Z,27.49
2019-03-09T00:02:50.389Z,27.40
2019-03-09T00:03:50.396Z,27.41
2019-03-09T00:04:50.398Z,27.40
2019-03-09T00:05:50.399Z,27.37
2019-03-09T00:06:50.401Z,27.47
2019-03-09T00:07:50.405Z,27.44
2019-03-09T00:08:50.407Z,27.40
2019-03-09T00:09:50.410Z,27.40
2019-03-09T00:10:50.414Z,27.41
2019-03-09T00:11:50.417Z,27.41
2019-03-09T00:12:50.419Z,27.44
2019-03-09T00:13:50.424Z,27.41
2019-03-09T00:14:50.428Z,27.44
2019-03-09T00:15:50.434Z,27.34
2019-03-09T00:16:50.432Z,27.41
2019-03-09T00:17:50.436Z,27.41
2019-03-09T00:18:50.439Z,27.29
2019-03-09T00:19:50.443Z,27.36
2019-03-09T00:20:50.453Z,27.47
2019-03-09T00:21:50.454Z,27.43
2019-03-09T00:22:50.452Z,27.40
2019-03-09T00:23:50.457Z,27.37
2019-03-09T00:24:50.460Z,27.40
2019-03-09T00:25:50.460Z,27.41
2019-03-09T00:26:50.464Z,27.41
2019-03-09T00:27:50.469Z,27.39
2019-03-09T00:28:50.469Z,27.39
2019-03-09T00:29:50.473Z,27.31
2019-03-09T00:30:50.477Z,27.49
2019-03-09T00:31:50.480Z,27.40
2019-03-09T00:32:50.482Z,27.40
2019-03-09T00:33:50.486Z,27.41
2019-03-09T00:34:50.490Z,27.41
2019-03-09T00:35:50.500Z,27.44
2019-03-09T00:36:50.495Z,27.41
2019-03-09T00:37:50.498Z,27.43
2019-03-09T00:38:50.502Z,27.43
2019-03-09T00:39:50.505Z,27.44
2019-03-09T00:40:50.508Z,27.39
2019-03-09T00:41:50.511Z,27.41
2019-03-09T00:42:50.515Z,27.40
2019-03-09T00:43:50.520Z,27.41
2019-03-09T00:44:50.522Z,27.34
2019-03-09T00:45:50.527Z,27.37
2019-03-09T00:46:50.527Z,27.43
2019-03-09T00:47:50.533Z,27.43
2019-03-09T00:48:50.532Z,27.31
2019-03-09T00:49:50.536Z,27.31
2019-03-09T00:50:50.542Z,27.34
2019-03-09T00:51:50.546Z,27.32
2019-03-09T00:52:50.543Z,27.32
2019-03-09T00:53:50.555Z,27.32
2019-03-09T00:54:50.552Z,27.39
2019-03-09T00:55:50.556Z,27.36
2019-03-09T00:56:50.558Z,27.39
2019-03-09T00:57:50.561Z,27.32
2019-03-09T00:58:50.574Z,27.36
2019-03-09T00:59:50.566Z,27.34
2019-03-09T01:00:50.570Z,27.31
2019-03-09T01:01:50.573Z,27.32
2019-03-09T01:02:51.283Z,27.40
2019-03-09T01:03:50.581Z,27.34
2019-03-09T01:04:50.582Z,27.34
2019-03-09T01:05:50.585Z,27.36
2019-03-09T01:06:50.590Z,27.32
2019-03-09T01:07:50.592Z,27.31
2019-03-09T01:08:50.604Z,27.41
2019-03-09T01:09:50.605Z,27.34
2019-03-09T01:10:50.604Z,27.37
2019-03-09T01:11:50.609Z,27.29
2019-03-09T01:12:50.608Z,27.36
2019-03-09T01:13:50.613Z,27.32
2019-03-09T01:14:50.614Z,27.39
2019-03-09T01:15:50.620Z,27.39
2019-03-09T01:16:50.620Z,27.37
2019-03-09T01:17:50.623Z,27.37
2019-03-09T01:18:50.626Z,27.36
2019-03-09T01:19:50.629Z,27.32
2019-03-09T01:20:50.632Z,27.37
2019-03-09T01:21:50.635Z,27.34
2019-03-09T01:22:50.638Z,27.31
2019-03-09T01:23:50.642Z,27.36
2019-03-09T01:24:50.647Z,27.32
2019-03-09T01:25:50.648Z,27.36
2019-03-09T01:26:50.650Z,27.34
2019-03-09T01:27:50.655Z,27.37
2019-03-09T01:28:50.656Z,27.31
2019-03-09T01:29:50.660Z,27.36
2019-03-09T01:30:50.663Z,27.32
2019-03-09T01:31:50.669Z,27.28
2019-03-09T01:32:50.668Z,27.34
2019-03-09T01:33:50.681Z,27.29
2019-03-09T01:34:50.689Z,27.37
2019-03-09T01:35:50.684Z,27.34
2019-03-09T01:36:50.695Z,27.31
2019-03-09T01:37:50.686Z,27.34
2019-03-09T01:38:50.687Z,27.29
2019-03-09T01:39:50.692Z,27.32
2019-03-09T01:40:50.693Z,27.29
2019-03-09T01:41:50.703Z,27.31
2019-03-09T01:42:50.705Z,27.32
2019-03-09T01:43:50.705Z,27.29
2019-03-09T01:44:50.707Z,27.29
2019-03-09T01:45:50.709Z,27.27
2019-03-09T01:46:50.712Z,27.25
2019-03-09T01:47:50.716Z,27.24
2019-03-09T01:48:50.717Z,27.22
2019-03-09T01:49:50.725Z,27.28
2019-03-09T01:50:50.724Z,27.27
2019-03-09T01:51:50.727Z,27.32
2019-03-09T01:52:50.731Z,27.28
2019-03-09T01:53:50.734Z,27.21
2019-03-09T01:54:50.739Z,27.28
2019-03-09T01:55:50.739Z,27.27
2019-03-09T01:56:50.742Z,27.27
2019-03-09T01:57:50.745Z,27.25
2019-03-09T01:58:50.749Z,27.25
2019-03-09T01:59:50.752Z,27.21
2019-03-09T02:00:50.754Z,27.22
2019-03-09T02:01:50.757Z,27.28
2019-03-09T02:02:50.763Z,27.29
2019-03-09T02:03:50.763Z,27.22
2019-03-09T02:04:50.766Z,27.25
2019-03-09T02:05:50.769Z,27.24
2019-03-09T02:06:50.772Z,27.22
2019-03-09T02:07:50.781Z,27.27
2019-03-09T02:08:50.785Z,27.27
2019-03-09T02:09:50.783Z,27.27
2019-03-09T02:10:50.799Z,27.25
2019-03-09T02:11:50.788Z,27.21
2019-03-09T02:12:50.790Z,27.27
2019-03-09T02:13:50.793Z,27.28
2019-03-09T02:14:50.796Z,27.22
2019-03-09T02:15:50.800Z,27.25
2019-03-09T02:16:50.802Z,27.24
2019-03-09T02:17:50.805Z,27.22
2019-03-09T02:18:50.808Z,27.25
2019-03-09T02:19:50.812Z,27.25
2019-03-09T02:20:50.814Z,27.24
2019-03-09T02:21:50.817Z,27.22
2019-03-09T02:22:50.826Z,27.19
2019-03-09T02:23:50.824Z,27.19
2019-03-09T02:24:50.826Z,27.21
2019-03-09T02:25:50.840Z,27.24
2019-03-09T02:26:50.833Z,27.22
2019-03-09T02:27:50.846Z,27.22
2019-03-09T02:28:50.838Z,27.22
2019-03-09T02:29:50.840Z,27.21
2019-03-09T02:30:50.846Z,27.27
2019-03-09T02:31:50.848Z,27.24
2019-03-09T02:32:50.854Z,27.24
2019-03-09T02:33:50.855Z,27.22
2019-03-09T02:34:50.859Z,27.21
2019-03-09T02:35:50.862Z,27.24
2019-03-09T02:36:50.862Z,27.29
2019-03-09T02:37:50.868Z,27.21
2019-03-09T02:38:50.872Z,27.24
2019-03-09T02:39:50.876Z,27.27
2019-03-09T02:40:50.876Z,27.21
2019-03-09T02:41:50.895Z,27.21
2019-03-09T02:42:50.881Z,27.21
2019-03-09T02:43:50.889Z,27.21
2019-03-09T02:44:50.888Z,27.27
2019-03-09T02:45:50.890Z,27.25
2019-03-09T02:46:50.899Z,27.25
2019-03-09T02:47:50.903Z,27.19
2019-03-09T02:48:50.903Z,27.24
2019-03-09T02:49:50.902Z,27.25
2019-03-09T02:50:50.907Z,27.22
2019-03-09T02:51:50.921Z,27.18
2019-03-09T02:52:50.911Z,27.22
2019-03-09T02:53:50.916Z,27.22
2019-03-09T02:54:50.918Z,27.24
2019-03-09T02:55:50.921Z,27.21
2019-03-09T02:56:50.923Z,27.18
2019-03-09T02:57:50.930Z,27.24
2019-03-09T02:58:50.937Z,27.21
2019-03-09T02:59:50.933Z,27.17
2019-03-09T03:00:50.939Z,27.18
2019-03-09T03:01:50.938Z,27.14
2019-03-09T03:02:50.950Z,27.25
2019-03-09T03:03:50.945Z,27.19
2019-03-09T03:04:50.947Z,27.24
2019-03-09T03:05:50.950Z,27.22
2019-03-09T03:06:50.954Z,27.19
2019-03-09T03:07:50.958Z,27.13
2019-03-09T03:08:50.967Z,27.14
2019-03-09T03:09:50.963Z,27.24
2019-03-09T03:10:50.992Z,27.13
2019-03-09T03:11:50.973Z,27.19
2019-03-09T03:12:50.972Z,27.18
2019-03-09T03:13:50.975Z,27.14
2019-03-09T03:14:50.981Z,27.18
2019-03-09T03:15:50.981Z,27.25
2019-03-09T03:16:50.984Z,27.22
2019-03-09T03:17:50.986Z,27.13
2019-03-09T03:18:51.007Z,27.13
2019-03-09T03:19:51.017Z,27.14
2019-03-09T03:20:50.994Z,27.09
2019-03-09T03:21:50.999Z,27.13
2019-03-09T03:22:51.005Z,27.13
2019-03-09T03:23:51.007Z,27.10
2019-03-09T03:24:51.014Z,27.17
2019-03-09T03:25:51.010Z,27.10
2019-03-09T03:26:51.015Z,27.22
2019-03-09T03:27:51.015Z,27.12
2019-03-09T03:28:51.024Z,27.14
2019-03-09T03:29:51.025Z,27.14
2019-03-09T03:30:51.037Z,27.14
2019-03-09T03:31:51.028Z,27.12
2019-03-09T03:32:51.030Z,27.13
2019-03-09T03:33:51.034Z,27.17
2019-03-09T03:34:51.035Z,27.13
2019-03-09T03:35:51.040Z,27.14
2019-03-09T03:36:51.043Z,27.09
2019-03-09T03:37:51.046Z,27.14
2019-03-09T03:38:51.050Z,27.13
2019-03-09T03:39:51.052Z,27.13
2019-03-09T03:40:51.054Z,27.10
2019-03-09T03:41:51.063Z,27.17
2019-03-09T03:42:51.064Z,27.13
2019-03-09T03:43:51.063Z,27.19
2019-03-09T03:44:51.065Z,27.10
2019-03-09T03:45:51.077Z,27.14
2019-03-09T03:46:51.084Z,27.12
2019-03-09T03:47:51.077Z,27.09
2019-03-09T03:48:51.092Z,27.13
2019-03-09T03:49:51.081Z,27.13
2019-03-09T03:50:51.085Z,27.12
2019-03-09T03:51:51.087Z,27.13
2019-03-09T03:52:51.090Z,27.22
2019-03-09T03:53:51.092Z,27.12
2019-03-09T03:54:51.096Z,27.12
2019-03-09T03:55:51.099Z,27.14
2019-03-09T03:56:51.104Z,27.12
2019-03-09T03:57:51.104Z,27.21
2019-03-09T03:58:51.120Z,27.14
2019-03-09T03:59:51.112Z,27.21
2019-03-09T04:00:51.115Z,27.14
2019-03-09T04:01:51.117Z,27.10
2019-03-09T04:02:51.121Z,27.13
2019-03-09T04:03:51.125Z,27.17
2019-03-09T04:04:51.141Z,27.17
2019-03-09T04:05:51.131Z,27.09
2019-03-09T04:06:51.134Z,27.06
2019-03-09T04:07:51.142Z,27.06
2019-03-09T04:08:51.149Z,27.18
2019-03-09T04:09:51.144Z,27.17
2019-03-09T04:10:51.144Z,27.06
2019-03-09T04:11:51.153Z,27.17
2019-03-09T04:12:51.149Z,27.13
2019-03-09T04:13:51.152Z,27.18
2019-03-09T04:14:51.157Z,27.10
2019-03-09T04:15:51.159Z,27.10
2019-03-09T04:16:51.161Z,27.09
2019-03-09T04:17:51.166Z,27.13
2019-03-09T04:18:51.176Z,27.17
2019-03-09T04:19:51.172Z,27.14
2019-03-09T04:20:51.173Z,27.17
2019-03-09T04:21:51.177Z,27.10
2019-03-09T04:22:51.180Z,27.06
2019-03-09T04:23:51.182Z,27.14
2019-03-09T04:24:51.186Z,27.06
2019-03-09T04:25:51.189Z,27.14
2019-03-09T04:26:51.193Z,27.09
2019-03-09T04:27:51.196Z,27.14
2019-03-09T04:28:51.197Z,27.17
2019-03-09T04:29:51.217Z,27.14
2019-03-09T04:30:51.219Z,27.13
2019-03-09T04:31:51.207Z,27.17
2019-03-09T04:32:51.217Z,27.13
2019-03-09T04:33:51.291Z,27.14
2019-03-09T04:34:51.217Z,27.18
2019-03-09T04:35:51.217Z,27.14
2019-03-09T04:36:51.221Z,27.10
2019-03-09T04:37:51.225Z,27.19
2019-03-09T04:38:51.229Z,27.06
2019-03-09T04:39:51.232Z,27.17
2019-03-09T04:40:51.231Z,27.18
2019-03-09T04:41:51.234Z,27.12
2019-03-09T04:42:51.237Z,27.18
2019-03-09T04:43:51.241Z,27.18
2019-03-09T04:44:51.242Z,27.12
2019-03-09T04:45:51.246Z,27.13
2019-03-09T04:46:51.251Z,27.12
2019-03-09T04:47:51.254Z,27.12
2019-03-09T04:48:51.256Z,27.14
2019-03-09T04:49:51.260Z,27.10
2019-03-09T04:50:51.260Z,27.18
2019-03-09T04:51:51.264Z,27.09
2019-03-09T04:52:51.266Z,27.17
2019-03-09T04:53:51.269Z,27.13
2019-03-09T04:54:51.272Z,27.14
2019-03-09T04:55:51.277Z,27.09
2019-03-09T04:56:51.278Z,27.09
2019-03-09T04:57:51.285Z,27.09
2019-03-09T04:58:51.287Z,27.18
2019-03-09T04:59:51.288Z,27.09
2019-03-09T05:00:51.290Z,27.12
2019-03-09T05:01:51.294Z,27.12
2019-03-09T05:02:51.296Z,27.13
2019-03-09T05:03:51.299Z,27.09
2019-03-09T05:04:51.303Z,27.02
2019-03-09T05:05:51.312Z,27.13
2019-03-09T05:06:51.308Z,27.10
2019-03-09T05:07:51.312Z,27.13
2019-03-09T05:08:51.314Z,27.10
2019-03-09T05:09:51.318Z,27.12
2019-03-09T05:10:51.320Z,27.13
2019-03-09T05:11:51.323Z,27.12
2019-03-09T05:12:51.329Z,27.09
2019-03-09T05:13:51.329Z,27.12
2019-03-09T05:14:51.334Z,27.12
2019-03-09T05:15:51.337Z,27.13
2019-03-09T05:16:51.340Z,27.12
2019-03-09T05:17:51.340Z,27.12
2019-03-09T05:18:51.342Z,27.09
2019-03-09T05:19:51.346Z,27.07
2019-03-09T05:20:51.350Z,27.03
2019-03-09T05:21:51.355Z,27.09
2019-03-09T05:22:51.356Z,27.09
2019-03-09T05:23:51.360Z,27.06
2019-03-09T05:24:51.360Z,27.04
2019-03-09T05:25:51.364Z,27.04
2019-03-09T05:26:51.367Z,27.13
2019-03-09T05:27:51.373Z,27.04
2019-03-09T05:28:51.373Z,27.00
2019-03-09T05:29:51.379Z,27.04
2019-03-09T05:30:51.378Z,27.09
2019-03-09T05:31:51.382Z,27.12
2019-03-09T05:32:51.387Z,27.10
2019-03-09T05:33:51.387Z,27.03
2019-03-09T05:34:51.390Z,27.09
2019-03-09T05:35:51.393Z,27.04
2019-03-09T05:36:51.396Z,27.10
2019-03-09T05:37:51.400Z,27.03
2019-03-09T05:38:51.402Z,27.07
2019-03-09T05:39:51.408Z,27.04
2019-03-09T05:40:51.407Z,27.03
2019-03-09T05:41:51.411Z,27.03
2019-03-09T05:42:51.414Z,27.09
2019-03-09T05:43:51.417Z,27.06
2019-03-09T05:44:51.419Z,27.07
2019-03-09T05:45:51.427Z,27.07
2019-03-09T05:46:51.426Z,27.06
2019-03-09T05:47:51.429Z,27.07
2019-03-09T05:48:51.431Z,27.12
2019-03-09T05:49:51.434Z,27.03
2019-03-09T05:50:51.440Z,27.09
2019-03-09T05:51:51.440Z,27.14
2019-03-09T05:52:51.442Z,27.03
2019-03-09T05:53:51.446Z,27.13
2019-03-09T05:54:51.449Z,27.09
2019-03-09T05:55:51.455Z,27.06
2019-03-09T05:56:51.454Z,27.06
2019-03-09T05:57:51.457Z,27.03
2019-03-09T05:58:51.463Z,27.10
2019-03-09T05:59:51.464Z,27.09
2019-03-09T06:00:51.466Z,27.04
2019-03-09T06:01:51.469Z,27.09
2019-03-09T06:02:51.474Z,27.09
2019-03-09T06:03:51.474Z,27.09
2019-03-09T06:04:51.478Z,27.12
2019-03-09T06:05:51.481Z,27.02
2019-03-09T06:06:51.484Z,27.13
2019-03-09T06:07:51.487Z,27.03
2019-03-09T06:08:51.490Z,27.03
2019-03-09T06:09:51.493Z,27.06
2019-03-09T06:10:51.503Z,27.09
2019-03-09T06:11:51.499Z,27.04
2019-03-09T06:12:51.501Z,27.07
2019-03-09T06:13:51.504Z,27.04
2019-03-09T06:14:51.507Z,27.02
2019-03-09T06:15:51.519Z,27.06
2019-03-09T06:16:51.518Z,27.10
2019-03-09T06:17:51.516Z,27.07
2019-03-09T06:18:51.520Z,27.04
2019-03-09T06:19:51.521Z,27.09
2019-03-09T06:20:51.526Z,27.04
2019-03-09T06:21:51.531Z,27.04
2019-03-09T06:22:51.532Z,27.04
2019-03-09T06:23:51.536Z,27.12
2019-03-09T06:24:51.536Z,27.12
2019-03-09T06:25:51.637Z,27.09
2019-03-09T06:26:51.542Z,27.06
2019-03-09T06:27:51.546Z,27.04
2019-03-09T06:28:51.548Z,27.07
2019-03-09T06:29:51.553Z,27.07
2019-03-09T06:30:51.555Z,27.00
2019-03-09T06:31:51.558Z,27.10
2019-03-09T06:32:51.563Z,27.04
2019-03-09T06:33:51.563Z,27.10
2019-03-09T06:34:51.566Z,27.12
2019-03-09T06:35:51.569Z,27.10
2019-03-09T06:36:51.571Z,27.06
2019-03-09T06:37:51.576Z,27.10
2019-03-09T06:38:51.583Z,27.14
2019-03-09T06:39:51.583Z,27.07
2019-03-09T06:40:51.583Z,27.12
2019-03-09T06:41:51.586Z,27.09
2019-03-09T06:42:51.591Z,27.10
2019-03-09T06:43:51.599Z,27.14
2019-03-09T06:44:51.596Z,27.09
2019-03-09T06:45:51.603Z,27.06
2019-03-09T06:46:51.602Z,27.07
2019-03-09T06:47:51.604Z,27.09
2019-03-09T06:48:51.606Z,27.13
2019-03-09T06:49:51.610Z,27.09
2019-03-09T06:50:51.613Z,27.10
2019-03-09T06:51:51.616Z,27.12
2019-03-09T06:52:51.618Z,27.06
2019-03-09T06:53:51.624Z,27.03
2019-03-09T06:54:51.625Z,27.12
2019-03-09T06:55:51.628Z,27.09
2019-03-09T06:56:51.629Z,27.09
2019-03-09T06:57:51.634Z,27.13
2019-03-09T06:58:51.635Z,27.13
2019-03-09T06:59:51.639Z,27.13
2019-03-09T07:00:51.646Z,27.06
2019-03-09T07:01:51.644Z,27.09
2019-03-09T07:02:51.647Z,27.09
2019-03-09T07:03:51.650Z,27.06
2019-03-09T07:04:51.653Z,27.10
2019-03-09T07:05:51.657Z,27.06
2019-03-09T07:06:51.664Z,27.10
2019-03-09T07:07:51.662Z,27.06
2019-03-09T07:08:51.665Z,27.13
2019-03-09T07:09:51.682Z,27.09
2019-03-09T07:10:51.671Z,27.04
2019-03-09T07:11:51.674Z,27.02
2019-03-09T07:12:51.677Z,27.10
2019-03-09T07:13:53.235Z,27.06
2019-03-09T07:14:51.683Z,27.12
2019-03-09T07:15:51.687Z,27.12
2019-03-09T07:16:51.690Z,27.06
2019-03-09T07:17:51.691Z,27.10
2019-03-09T07:18:51.695Z,27.07
2019-03-09T07:19:51.697Z,27.10
2019-03-09T07:20:51.700Z,27.10
2019-03-09T07:21:51.704Z,27.12
2019-03-09T07:22:51.706Z,27.02
2019-03-09T07:23:53.707Z,27.07
2019-03-09T07:24:51.731Z,27.09
2019-03-09T07:25:51.714Z,27.10
2019-03-09T07:26:51.717Z,27.12
2019-03-09T07:27:51.721Z,27.12
2019-03-09T07:28:51.723Z,27.04
2019-03-09T07:29:51.726Z,27.04
2019-03-09T07:30:51.731Z,27.06
2019-03-09T07:31:51.732Z,27.10
2019-03-09T07:32:51.738Z,27.07
2019-03-09T07:33:51.739Z,27.02
2019-03-09T07:34:51.741Z,27.06
2019-03-09T07:35:51.742Z,27.09
2019-03-09T07:36:51.745Z,27.06
2019-03-09T07:37:51.749Z,27.12
2019-03-09T07:38:51.753Z,26.99
2019-03-09T07:39:51.755Z,27.06
2019-03-09T07:40:51.762Z,27.03
2019-03-09T07:41:51.761Z,27.02
2019-03-09T07:42:51.764Z,26.99
2019-03-09T07:43:51.767Z,27.02
2019-03-09T07:44:51.770Z,27.04
2019-03-09T07:45:51.772Z,27.07
2019-03-09T07:46:51.778Z,27.12
2019-03-09T07:47:51.780Z,27.04
2019-03-09T07:48:51.819Z,27.07
2019-03-09T07:49:51.784Z,27.12
2019-03-09T07:50:51.788Z,27.06
2019-03-09T07:51:51.790Z,27.03
2019-03-09T07:52:51.796Z,27.02
2019-03-09T07:53:51.796Z,27.06
2019-03-09T07:54:52.173Z,27.03
2019-03-09T07:55:51.802Z,27.06
2019-03-09T07:56:51.807Z,27.06
2019-03-09T07:57:51.808Z,27.04
2019-03-09T07:58:51.809Z,27.03
2019-03-09T07:59:51.814Z,26.94
2019-03-09T08:00:51.818Z,27.04
2019-03-09T08:01:51.820Z,27.06
2019-03-09T08:02:51.822Z,27.06
2019-03-09T08:03:51.835Z,27.04
2019-03-09T08:04:51.829Z,27.09
2019-03-09T08:05:51.831Z,27.09
2019-03-09T08:06:51.834Z,27.07
2019-03-09T08:07:51.837Z,27.10
2019-03-09T08:08:51.841Z,27.06
2019-03-09T08:09:51.849Z,27.09
2019-03-09T08:10:51.845Z,27.07
2019-03-09T08:11:51.848Z,27.09
2019-03-09T08:12:51.851Z,27.04
2019-03-09T08:13:51.854Z,27.07
2019-03-09T08:14:51.857Z,27.00
2019-03-09T08:15:51.861Z,27.02
2019-03-09T08:16:51.867Z,27.12
2019-03-09T08:17:51.873Z,27.04
2019-03-09T08:18:51.872Z,27.03
2019-03-09T08:19:51.872Z,27.10
2019-03-09T08:20:51.877Z,27.07
2019-03-09T08:21:51.895Z,27.12
2019-03-09T08:22:51.881Z,27.10
2019-03-09T08:23:51.883Z,27.06
2019-03-09T08:24:51.886Z,27.04
2019-03-09T08:25:51.890Z,27.06
2019-03-09T08:26:51.892Z,27.04
2019-03-09T08:27:51.895Z,27.09
2019-03-09T08:28:51.898Z,27.09
2019-03-09T08:29:51.900Z,27.09
2019-03-09T08:30:51.904Z,27.04
2019-03-09T08:31:51.910Z,27.10
2019-03-09T08:32:51.925Z,27.09
2019-03-09T08:33:51.925Z,27.09
2019-03-09T08:34:51.933Z,27.03
2019-03-09T08:35:51.940Z,27.04
2019-03-09T08:36:51.923Z,27.03
2019-03-09T08:37:51.928Z,27.04
2019-03-09T08:38:51.927Z,26.99
2019-03-09T08:39:51.931Z,27.00
2019-03-09T08:40:51.932Z,27.02
2019-03-09T08:41:51.959Z,27.00
2019-03-09T08:42:51.979Z,27.04
2019-03-09T08:43:51.948Z,27.07
2019-03-09T08:44:51.961Z,27.06
2019-03-09T08:45:51.948Z,27.07
2019-03-09T08:46:51.950Z,27.02
2019-03-09T08:47:53.021Z,27.02
2019-03-09T08:48:51.958Z,26.97
2019-03-09T08:49:51.958Z,26.95
2019-03-09T08:50:52.002Z,27.09
2019-03-09T08:51:52.006Z,27.07
2019-03-09T08:52:51.991Z,27.07
2019-03-09T08:53:51.995Z,27.00
2019-03-09T08:54:51.980Z,27.07
2019-03-09T08:55:51.977Z,27.09
2019-03-09T08:56:51.978Z,27.09
2019-03-09T08:57:51.982Z,27.12
2019-03-09T08:58:51.998Z,27.04
2019-03-09T08:59:51.989Z,27.02
2019-03-09T09:00:52.063Z,27.09
2019-03-09T09:01:51.993Z,27.02
2019-03-09T09:02:51.996Z,26.99
2019-03-09T09:03:51.999Z,27.06
2019-03-09T09:04:52.001Z,27.03
2019-03-09T09:05:52.005Z,27.04
2019-03-09T09:06:52.009Z,27.10
2019-03-09T09:07:52.021Z,27.03
2019-03-09T09:08:52.017Z,27.04
2019-03-09T09:09:52.028Z,27.04
2019-03-09T09:10:52.020Z,27.09
2019-03-09T09:11:52.023Z,27.02
2019-03-09T09:12:52.051Z,27.07
2019-03-09T09:13:52.027Z,27.02
2019-03-09T09:14:52.031Z,27.00
2019-03-09T09:15:52.035Z,27.07
2019-03-09T09:16:52.037Z,27.09
2019-03-09T09:17:52.040Z,27.04
2019-03-09T09:18:52.042Z,27.07
2019-03-09T09:19:52.046Z,27.06
2019-03-09T09:20:52.047Z,27.00
2019-03-09T09:21:52.057Z,26.99
2019-03-09T09:22:52.055Z,27.02
2019-03-09T09:23:52.057Z,27.04
2019-03-09T09:24:52.061Z,27.02
2019-03-09T09:25:52.063Z,27.10
2019-03-09T09:26:52.068Z,27.09
2019-03-09T09:27:52.449Z,27.02
2019-03-09T09:28:52.072Z,27.00
2019-03-09T09:29:52.076Z,27.10
2019-03-09T09:30:52.080Z,27.09
2019-03-09T09:31:52.081Z,27.02
2019-03-09T09:32:52.084Z,27.04
2019-03-09T09:33:52.085Z,27.03
2019-03-09T09:34:52.089Z,27.07
2019-03-09T09:35:52.093Z,27.06
2019-03-09T09:36:52.094Z,27.07
2019-03-09T09:37:52.100Z,27.02
2019-03-09T09:38:52.109Z,27.12
2019-03-09T09:39:52.104Z,27.03
2019-03-09T09:40:52.106Z,27.07
2019-03-09T09:41:52.110Z,27.09
2019-03-09T09:42:52.112Z,27.02
2019-03-09T09:43:52.120Z,26.99
2019-03-09T09:44:52.128Z,27.06
2019-03-09T09:45:52.124Z,27.10
2019-03-09T09:46:52.123Z,27.09
2019-03-09T09:47:52.130Z,27.09
2019-03-09T09:48:52.128Z,27.09
2019-03-09T09:49:52.132Z,27.02
2019-03-09T09:50:52.136Z,26.97
2019-03-09T09:51:52.136Z,27.04
2019-03-09T09:52:52.141Z,27.03
2019-03-09T09:53:52.144Z,27.03
2019-03-09T09:54:52.147Z,27.09
2019-03-09T09:55:52.152Z,27.07
2019-03-09T09:56:52.152Z,27.06
2019-03-09T09:57:52.157Z,27.04
2019-03-09T09:58:52.159Z,27.02
2019-03-09T09:59:52.163Z,27.07
2019-03-09T10:00:52.166Z,27.06
2019-03-09T10:01:52.167Z,27.02
2019-03-09T10:02:52.171Z,26.94
2019-03-09T10:03:52.173Z,27.00
2019-03-09T10:04:52.179Z,27.00
2019-03-09T10:05:52.179Z,27.06
2019-03-09T10:06:52.182Z,27.06
2019-03-09T10:07:52.184Z,27.02
2019-03-09T10:08:52.194Z,27.02
2019-03-09T10:09:52.191Z,26.97
2019-03-09T10:10:52.200Z,27.00
2019-03-09T10:11:52.203Z,27.02
2019-03-09T10:12:52.202Z,26.97
2019-03-09T10:13:52.202Z,26.97
2019-03-09T10:14:52.206Z,26.99
2019-03-09T10:15:52.208Z,27.03
2019-03-09T10:16:52.210Z,26.97
2019-03-09T10:17:52.213Z,27.00
2019-03-09T10:18:52.216Z,26.92
2019-03-09T10:19:52.219Z,27.02
2019-03-09T10:20:52.222Z,26.95
2019-03-09T10:21:52.225Z,26.94
2019-03-09T10:23:03.063Z,26.99
2019-03-09T10:23:52.231Z,26.97
2019-03-09T10:24:52.232Z,27.03
2019-03-09T10:25:52.236Z,27.07
2019-03-09T10:26:52.241Z,26.97
2019-03-09T10:27:52.242Z,27.03
2019-03-09T10:28:52.245Z,27.00
2019-03-09T10:29:52.247Z,26.95
2019-03-09T10:30:52.254Z,27.00
2019-03-09T10:31:52.254Z,27.02
2019-03-09T10:32:52.256Z,26.99
2019-03-09T10:33:52.258Z,27.04
2019-03-09T10:34:52.266Z,26.97
2019-03-09T10:35:52.269Z,27.09
2019-03-09T10:36:52.274Z,26.94
2019-03-09T10:37:52.270Z,26.92
2019-03-09T10:38:52.318Z,27.06
2019-03-09T10:39:52.277Z,26.94
2019-03-09T10:40:52.280Z,27.02
2019-03-09T10:41:52.282Z,26.99
2019-03-09T10:42:52.285Z,26.91
2019-03-09T10:43:52.288Z,26.97
2019-03-09T10:44:52.294Z,26.92
2019-03-09T10:45:52.296Z,26.91
2019-03-09T10:46:52.297Z,26.95
2019-03-09T10:47:52.300Z,27.00
2019-03-09T10:48:52.302Z,26.97
2019-03-09T10:49:52.306Z,26.95
2019-03-09T10:50:52.309Z,26.97
2019-03-09T10:51:52.311Z,27.00
2019-03-09T10:52:52.312Z,26.97
2019-03-09T10:53:52.316Z,27.02
2019-03-09T10:54:52.320Z,27.07
2019-03-09T10:55:52.369Z,27.09
2019-03-09T10:56:52.325Z,26.99
2019-03-09T10:57:52.327Z,27.00
2019-03-09T10:58:52.335Z,26.94
2019-03-09T10:59:52.336Z,26.95
2019-03-09T11:00:52.339Z,26.97
2019-03-09T11:01:52.341Z,27.00
2019-03-09T11:02:52.353Z,27.06
2019-03-09T11:03:52.349Z,26.99
2019-03-09T11:04:52.350Z,26.99
2019-03-09T11:05:52.351Z,26.97
2019-03-09T11:06:52.363Z,27.07
2019-03-09T11:07:52.358Z,27.00
2019-03-09T11:08:52.360Z,26.95
2019-03-09T11:09:52.364Z,27.03
2019-03-09T11:10:52.369Z,27.00
2019-03-09T11:11:52.368Z,26.99
2019-03-09T11:12:52.386Z,27.03
2019-03-09T11:13:52.405Z,26.94
2019-03-09T11:14:52.378Z,26.97
2019-03-09T11:15:52.380Z,26.99
2019-03-09T11:16:52.387Z,27.02
2019-03-09T11:17:52.386Z,26.94
2019-03-09T11:18:52.392Z,26.95
2019-03-09T11:19:52.392Z,27.00
2019-03-09T11:20:52.395Z,27.02
2019-03-09T11:21:52.396Z,27.03
2019-03-09T11:22:52.402Z,26.95
2019-03-09T11:23:52.457Z,27.00
2019-03-09T11:25:02.923Z,26.95
2019-03-09T11:25:52.409Z,26.97
2019-03-09T11:26:52.412Z,26.94
2019-03-09T11:27:52.417Z,26.95
2019-03-09T11:28:52.417Z,26.94
2019-03-09T11:29:52.421Z,26.99
2019-03-09T11:30:52.431Z,26.91
2019-03-09T11:31:52.428Z,26.92
2019-03-09T11:32:52.432Z,26.99
2019-03-09T11:33:52.432Z,26.92
2019-03-09T11:34:52.435Z,27.03
2019-03-09T11:35:52.438Z,26.95
2019-03-09T11:36:52.442Z,26.99
2019-03-09T11:37:52.443Z,26.95
2019-03-09T11:38:52.449Z,26.99
2019-03-09T11:39:52.451Z,27.02
2019-03-09T11:40:57.328Z,26.95
2019-03-09T11:41:52.456Z,27.00
2019-03-09T11:42:52.458Z,26.94
2019-03-09T11:43:52.461Z,27.02
2019-03-09T11:44:52.464Z,26.92
2019-03-09T11:45:52.467Z,26.97
2019-03-09T11:46:52.470Z,26.99
2019-03-09T11:47:52.473Z,26.91
2019-03-09T11:48:52.477Z,27.00
2019-03-09T11:49:52.479Z,26.94
2019-03-09T11:50:52.483Z,26.99
2019-03-09T11:51:52.484Z,26.99
2019-03-09T11:52:52.486Z,27.02
2019-03-09T11:53:52.492Z,26.91
2019-03-09T11:54:52.493Z,26.95
2019-03-09T11:55:52.497Z,26.95
2019-03-09T11:56:52.498Z,26.95
2019-03-09T11:57:52.501Z,26.94
2019-03-09T11:58:52.506Z,27.03
2019-03-09T11:59:52.508Z,26.92
2019-03-09T12:00:52.521Z,26.92
2019-03-09T12:01:52.514Z,26.95
2019-03-09T12:02:52.519Z,26.95
2019-03-09T12:03:52.524Z,27.03
2019-03-09T12:04:52.520Z,26.95
2019-03-09T12:05:52.527Z,27.03
2019-03-09T12:06:52.527Z,26.89
2019-03-09T12:07:52.571Z,27.04
2019-03-09T12:08:52.534Z,26.95
2019-03-09T12:09:52.536Z,26.97
2019-03-09T12:10:52.539Z,26.95
2019-03-09T12:11:52.542Z,26.92
2019-03-09T12:12:52.543Z,26.95
2019-03-09T12:13:52.547Z,26.97
2019-03-09T12:14:52.551Z,26.99
2019-03-09T12:15:52.555Z,27.02
2019-03-09T12:16:52.556Z,27.02
2019-03-09T12:17:52.559Z,26.99
2019-03-09T12:18:52.568Z,27.07
2019-03-09T12:19:52.570Z,27.00
2019-03-09T12:20:52.568Z,26.94
2019-03-09T12:21:52.570Z,26.99
2019-03-09T12:22:52.574Z,26.95
2019-03-09T12:23:52.599Z,26.99
2019-03-09T12:24:52.584Z,26.92
2019-03-09T12:25:52.582Z,27.00
2019-03-09T12:26:52.588Z,26.97
2019-03-09T12:27:52.589Z,26.95
2019-03-09T12:28:52.593Z,26.99
2019-03-09T12:29:52.595Z,26.99
2019-03-09T12:30:52.599Z,27.00
2019-03-09T12:31:52.603Z,26.95
2019-03-09T12:32:52.606Z,27.03
2019-03-09T12:33:52.605Z,26.94
2019-03-09T12:34:52.608Z,26.99
2019-03-09T12:35:52.616Z,27.06
2019-03-09T12:36:52.615Z,26.95
2019-03-09T12:37:52.617Z,26.91
2019-03-09T12:38:52.621Z,26.99
2019-03-09T12:39:52.621Z,27.04
2019-03-09T12:40:52.624Z,27.02
2019-03-09T12:41:52.758Z,27.00
2019-03-09T12:42:52.632Z,26.94
2019-03-09T12:43:52.636Z,27.06
2019-03-09T12:44:52.638Z,26.99
2019-03-09T12:45:52.641Z,26.97
2019-03-09T12:46:52.644Z,27.02
2019-03-09T12:47:52.646Z,27.00
2019-03-09T12:48:52.649Z,26.94
2019-03-09T12:49:52.654Z,26.95
2019-03-09T12:50:52.655Z,27.00
2019-03-09T12:51:52.659Z,27.06
2019-03-09T12:52:52.660Z,27.00